General Aviation Weather

Text Reports

Enter one or more of the following location identifiers separated by a space:

Zip Code, Four-Character ICAO or Three-Character IATA airport codes.

METAR - Aviation Routine Weather Report
OJAM - Amman,
Updated at 4:00 PM GMT on April 23, 2014 (7:00 PM EEST):
METAR OJAM 231600Z 31006KT 5000 HZ NSC 26/03 Q1016 NOSIG
TAF - Terminal Area Forecast
OJAM - Amman,
Updated at 4:00 PM GMT on April 23, 2014 (7:00 PM EEST):
TAF OJAM 231600Z NIL=
Decoded:
ID: OJAM   Amman/King Abdu, JD
REPORT TIME: 23 16: 0
INITIAL WX
   WEATHER: NIL
   COMMENTS: = 

PIREP - Pilot Weather Report
OJAM - Amman,
Updated at 4:00 PM GMT on April 23, 2014 (7:00 PM EEST):
No PIREP is currently available for this location.
AIRMET - Airmens Meteorological Information
OJAM - Amman,
Updated at 4:00 PM GMT on April 23, 2014 (7:00 PM EEST):
No AIRMET is currently available for this location.
SIGMET - Significant Meteorological Information
OJAM - Amman,
Updated at 4:00 PM GMT on April 23, 2014 (7:00 PM EEST):
No SIGMET is currently available for this location.
NOTAM - Notice to Airmen
OJAM - Amman,
Updated at 4:00 PM GMT on April 23, 2014 (7:00 PM EEST):
No NOTAM is currently available for this location.
Forecast Area
OJAM - Amman,
Updated at 4:00 PM GMT on April 23, 2014 (7:00 PM EEST):
No NOTAM is currently available for this location.
Aviation Weather Maps